Time;durP1;ratioP1;P1;durP2;ratioP2;P2;SDS_P1;SDS_P2;PMS_P1;PMS_P2;Temp;Humidity;BMP_temperature;BMP_pressure;BME280_temperature;BME280_humidity;BME280_pressure;Samples;Min_cycle;Max_cycle;Signal;HPM_P1;HPM_P2
2021/04/10 00:00:59;;;;;;;5.20;4.70;;;11.90;99.90;;;;;;5046558;28;20623;-68
2021/04/10 00:03:25;;;;;;;6.13;5.20;;;11.90;99.90;;;;;;5049846;28;20544;-68
2021/04/10 00:05:51;;;;;;;5.60;4.97;;;11.90;99.90;;;;;;5050797;28;20202;-68
2021/04/10 00:08:17;;;;;;;6.30;4.93;;;11.90;99.90;;;;;;5038037;28;20198;-68
2021/04/10 00:10:44;;;;;;;6.20;5.60;;;11.90;99.90;;;;;;5043737;28;20262;-68
2021/04/10 00:13:10;;;;;;;4.70;4.30;;;11.90;99.90;;;;;;5033737;28;20207;-68
2021/04/10 00:15:37;;;;;;;5.47;4.75;;;11.90;99.90;;;;;;5031737;28;20223;-68
2021/04/10 00:18:03;;;;;;;4.82;4.43;;;11.80;99.90;;;;;;5040354;28;20208;-69
2021/04/10 00:20:29;;;;;;;5.55;4.68;;;11.80;99.90;;;;;;5034530;28;20203;-68
2021/04/10 00:22:56;;;;;;;5.00;4.47;;;11.80;99.90;;;;;;5051640;28;20879;-68
2021/04/10 00:25:22;;;;;;;6.47;5.28;;;11.80;99.90;;;;;;5047436;28;20207;-68
2021/04/10 00:27:49;;;;;;;4.90;4.35;;;11.80;99.90;;;;;;5042895;28;20292;-68
2021/04/10 00:30:16;;;;;;;5.07;4.57;;;11.80;99.90;;;;;;5033608;28;20198;-68
2021/04/10 00:32:43;;;;;;;5.13;4.72;;;11.80;99.90;;;;;;5039990;28;20535;-68
2021/04/10 00:35:11;;;;;;;5.15;4.65;;;11.80;99.90;;;;;;5050597;28;20210;-69
2021/04/10 00:37:37;;;;;;;5.07;4.57;;;11.80;99.90;;;;;;5034351;28;20196;-68
2021/04/10 00:40:03;;;;;;;5.45;4.95;;;11.80;99.90;;;;;;5032014;28;20552;-68
2021/04/10 00:42:30;;;;;;;4.70;4.05;;;11.80;99.90;;;;;;5033520;28;20203;-68
2021/04/10 00:44:56;;;;;;;5.30;4.80;;;11.80;99.90;;;;;;5035409;28;20659;-69
2021/04/10 00:47:22;;;;;;;5.50;5.00;;;11.80;99.90;;;;;;5046782;28;20195;-69
2021/04/10 00:49:49;;;;;;;6.80;5.70;;;11.80;99.90;;;;;;5040801;28;20199;-69
2021/04/10 00:52:19;;;;;;;6.43;5.45;;;11.80;99.90;;;;;;5036820;28;20206;-68
2021/04/10 00:54:47;;;;;;;5.32;4.68;;;11.80;99.90;;;;;;5050273;28;20253;-69
2021/04/10 00:57:13;;;;;;;5.55;4.85;;;11.80;99.90;;;;;;5041386;28;20219;-69
2021/04/10 00:59:40;;;;;;;5.28;4.78;;;11.80;99.90;;;;;;5037801;28;20200;-68
2021/04/10 01:02:08;;;;;;;6.47;5.03;;;11.80;99.90;;;;;;5037310;28;20837;-68
2021/04/10 01:04:34;;;;;;;5.30;4.80;;;11.70;99.90;;;;;;5038161;28;20262;-69
2021/04/10 01:07:01;;;;;;;4.38;3.97;;;11.70;99.90;;;;;;5032265;28;20199;-69
2021/04/10 01:09:28;;;;;;;5.22;4.55;;;11.70;99.90;;;;;;5031125;28;20203;-69
2021/04/10 01:12:06;;;;;;;6.95;4.97;;;11.70;99.90;;;;;;5044248;28;20199;-68
2021/04/10 01:14:44;;;;;;;4.90;4.50;;;11.70;99.90;;;;;;5050678;28;20201;-69
2021/04/10 01:17:13;;;;;;;6.47;4.93;;;11.70;99.90;;;;;;5039704;28;20225;-69
2021/04/10 01:19:59;;;;;;;5.13;4.63;;;11.70;99.90;;;;;;5050830;28;20233;-68
2021/04/10 01:22:42;;;;;;;6.25;5.18;;;11.70;99.90;;;;;;5037984;28;20246;-68
2021/04/10 01:25:14;;;;;;;3.90;3.60;;;11.70;99.90;;;;;;5031084;28;20218;-68
2021/04/10 01:27:43;;;;;;;5.57;4.63;;;11.70;99.90;;;;;;5030535;28;20238;-68
2021/04/10 01:30:13;;;;;;;5.07;4.07;;;11.70;99.90;;;;;;5034409;28;20196;-68
2021/04/10 01:32:58;;;;;;;5.68;5.13;;;11.70;99.90;;;;;;5041472;28;20559;-68
2021/04/10 01:35:30;;;;;;;4.43;3.95;;;11.70;99.90;;;;;;5030518;28;20707;-68
2021/04/10 01:37:58;;;;;;;6.38;5.78;;;11.70;99.90;;;;;;5032263;28;22086;-68
2021/04/10 01:40:29;;;;;;;5.30;4.90;;;11.60;99.90;;;;;;5044306;28;20677;-67
2021/04/10 01:42:56;;;;;;;4.85;4.45;;;11.60;99.90;;;;;;5039205;28;20196;-68
2021/04/10 01:45:24;;;;;;;5.13;4.63;;;11.70;99.90;;;;;;5030225;28;20247;-68
2021/04/10 01:47:54;;;;;;;5.28;4.78;;;11.60;99.90;;;;;;5039569;28;20543;-68
2021/04/10 01:50:21;;;;;;;5.70;5.13;;;11.60;99.90;;;;;;5038745;28;20692;-68
2021/04/10 01:52:49;;;;;;;5.55;4.95;;;11.60;99.90;;;;;;5032426;28;20258;-68
2021/04/10 01:55:17;;;;;;;5.25;4.75;;;11.60;99.90;;;;;;5048580;28;20194;-68
2021/04/10 01:57:44;;;;;;;5.53;5.03;;;11.60;99.90;;;;;;5035254;28;20671;-68
2021/04/10 02:00:12;;;;;;;5.97;4.88;;;11.60;99.90;;;;;;5030371;28;20211;-68
2021/04/10 02:02:41;;;;;;;4.55;3.90;;;11.60;99.90;;;;;;5037709;28;20202;-68
2021/04/10 02:05:12;;;;;;;6.22;4.40;;;11.60;99.90;;;;;;5045438;28;20196;-68
2021/04/10 02:07:41;;;;;;;5.28;4.50;;;11.60;99.90;;;;;;5038343;28;20202;-68
2021/04/10 02:10:08;;;;;;;5.55;5.05;;;11.60;99.90;;;;;;5050825;28;20195;-68
2021/04/10 02:12:35;;;;;;;5.28;4.78;;;11.50;99.90;;;;;;5036122;28;20195;-68
2021/04/10 02:15:02;;;;;;;4.97;4.53;;;11.50;99.90;;;;;;5030003;28;20214;-68
2021/04/10 02:17:29;;;;;;;6.03;5.00;;;11.50;99.90;;;;;;5036459;28;20219;-68
2021/04/10 02:19:56;;;;;;;5.40;4.90;;;11.50;99.90;;;;;;5030773;28;20203;-68
2021/04/10 02:22:23;;;;;;;5.25;4.75;;;11.50;99.90;;;;;;5033969;28;20200;-68
2021/04/10 02:24:50;;;;;;;4.80;4.40;;;11.50;99.90;;;;;;5038641;28;20204;-68
2021/04/10 02:27:16;;;;;;;5.50;5.00;;;11.50;99.90;;;;;;5043896;28;20239;-69
2021/04/10 02:29:43;;;;;;;5.38;4.82;;;11.50;99.90;;;;;;5029389;28;20660;-68
2021/04/10 02:32:15;;;;;;;6.57;5.68;;;11.50;99.90;;;;;;5041310;28;20191;-68
2021/04/10 02:35:01;;;;;;;5.88;5.47;;;11.50;99.90;;;;;;5031020;28;20632;-68
2021/04/10 02:37:29;;;;;;;6.57;5.13;;;11.50;99.90;;;;;;5029332;28;20219;-69
2021/04/10 02:39:56;;;;;;;5.95;5.45;;;11.40;99.90;;;;;;5029766;28;20219;-69
2021/04/10 02:42:24;;;;;;;6.15;5.65;;;11.40;99.90;;;;;;5038547;28;20190;-68
2021/04/10 02:44:53;;;;;;;6.15;5.65;;;11.40;99.90;;;;;;5031085;28;20199;-69
2021/04/10 02:47:23;;;;;;;6.57;5.97;;;11.40;99.90;;;;;;5046783;28;20199;-68
2021/04/10 02:49:52;;;;;;;7.05;6.45;;;11.40;99.90;;;;;;5049717;28;20547;-69
2021/04/10 02:52:26;;;;;;;6.72;6.13;;;11.40;99.90;;;;;;5029905;28;20419;-69
2021/04/10 02:54:54;;;;;;;6.35;5.82;;;11.40;99.90;;;;;;5030390;28;20219;-69
2021/04/10 02:57:23;;;;;;;6.60;6.10;;;11.40;99.90;;;;;;5048740;28;20226;-69
2021/04/10 02:59:52;;;;;;;6.32;5.80;;;11.40;99.90;;;;;;5041474;28;20195;-69
2021/04/10 03:02:19;;;;;;;6.88;6.18;;;11.30;99.90;;;;;;5035517;28;20200;-68
2021/04/10 03:04:47;;;;;;;7.65;6.85;;;11.30;99.90;;;;;;5033495;28;20265;-68
2021/04/10 03:07:14;;;;;;;9.80;6.22;;;11.30;99.90;;;;;;5033459;28;20227;-68
2021/04/10 03:09:44;;;;;;;7.10;6.47;;;11.30;99.90;;;;;;5033278;28;20200;-68
2021/04/10 03:12:12;;;;;;;7.82;7.03;;;11.30;99.90;;;;;;5038387;28;20207;-69
2021/04/10 03:14:40;;;;;;;6.20;5.60;;;11.30;99.90;;;;;;5050905;28;20213;-69
2021/04/10 03:17:07;;;;;;;6.57;5.97;;;11.30;99.90;;;;;;5036054;28;20226;-69
2021/04/10 03:19:36;;;;;;;11.35;7.35;;;11.30;99.90;;;;;;5042403;28;20203;-69
2021/04/10 03:22:02;;;;;;;6.80;6.10;;;11.30;99.90;;;;;;5033479;28;20204;-69
2021/04/10 03:24:28;;;;;;;10.45;8.45;;;11.30;99.90;;;;;;5033312;28;20663;-68
2021/04/10 03:26:56;;;;;;;6.85;6.25;;;11.20;99.90;;;;;;5032868;28;20263;-68
2021/04/10 03:29:23;;;;;;;8.93;8.05;;;11.20;99.90;;;;;;5046308;28;20206;-69
2021/04/10 03:31:50;;;;;;;8.45;7.65;;;11.20;99.90;;;;;;5035029;28;20199;-68
2021/04/10 03:34:17;;;;;;;9.25;7.00;;;11.20;99.90;;;;;;5037224;28;20210;-69
2021/04/10 03:36:43;;;;;;;7.15;6.35;;;11.20;99.90;;;;;;5053006;28;20211;-68
2021/04/10 03:39:10;;;;;;;8.55;7.05;;;11.20;99.90;;;;;;5048725;28;20203;-68
2021/04/10 03:41:36;;;;;;;7.35;6.60;;;11.20;99.90;;;;;;5037735;28;20258;-68
2021/04/10 03:44:03;;;;;;;7.68;6.93;;;11.20;99.90;;;;;;5044038;28;20690;-68
2021/04/10 03:46:30;;;;;;;11.23;9.07;;;11.20;99.90;;;;;;5038180;28;20544;-68
2021/04/10 03:48:56;;;;;;;9.75;8.25;;;11.10;99.90;;;;;;5031141;28;20199;-68
2021/04/10 03:51:22;;;;;;;8.88;8.07;;;11.10;99.90;;;;;;5031219;28;20203;-68
2021/04/10 03:53:48;;;;;;;8.52;6.95;;;11.10;99.90;;;;;;5038228;28;20259;-68
2021/04/10 03:56:15;;;;;;;8.40;7.40;;;11.10;99.90;;;;;;5045227;28;20210;-68
2021/04/10 04:02:03;;;;;;;9.20;8.27;;;11.10;99.90;;;;;;5030708;28;20326;-68
2021/04/10 04:04:30;;;;;;;10.40;9.43;;;11.10;99.90;;;;;;5032762;28;20204;-68
2021/04/10 04:06:56;;;;;;;8.52;7.05;;;11.10;99.90;;;;;;5039339;28;20559;-68
2021/04/10 04:09:22;;;;;;;8.60;7.70;;;11.00;99.90;;;;;;5043102;28;20628;-68
2021/04/10 04:11:48;;;;;;;7.88;7.10;;;11.10;99.90;;;;;;5040862;28;20199;-68
2021/04/10 04:14:15;;;;;;;10.07;8.90;;;11.10;99.90;;;;;;5037701;28;20514;-68
2021/04/10 04:16:41;;;;;;;11.77;7.65;;;11.10;99.90;;;;;;5041621;28;20227;-68
2021/04/10 04:19:08;;;;;;;12.55;9.57;;;11.10;99.90;;;;;;5036750;28;20208;-69
2021/04/10 04:21:34;;;;;;;7.80;7.07;;;11.00;99.90;;;;;;5041693;28;20559;-68
2021/04/10 04:24:00;;;;;;;9.88;8.35;;;11.00;99.90;;;;;;5039977;28;20210;-68
2021/04/10 04:26:26;;;;;;;11.27;9.27;;;11.00;99.90;;;;;;5032200;28;20227;-68
2021/04/10 04:28:53;;;;;;;8.13;6.88;;;11.00;99.90;;;;;;5037853;28;20493;-68
2021/04/10 04:31:20;;;;;;;10.60;7.07;;;11.00;99.90;;;;;;5039507;28;20198;-68
2021/04/10 04:33:46;;;;;;;7.60;6.85;;;11.00;99.90;;;;;;5035114;28;20204;-68
2021/04/10 04:36:13;;;;;;;7.65;6.90;;;11.00;99.90;;;;;;5047480;28;20233;-69
2021/04/10 04:38:40;;;;;;;8.40;7.10;;;11.00;99.90;;;;;;5032463;28;20525;-69
2021/04/10 04:41:06;;;;;;;8.63;7.82;;;11.00;99.90;;;;;;5039404;28;20206;-69
2021/04/10 04:43:32;;;;;;;9.07;7.55;;;11.00;99.90;;;;;;5043786;28;20269;-68
2021/04/10 04:45:58;;;;;;;9.30;6.75;;;11.00;99.90;;;;;;5034602;28;20203;-68
2021/04/10 04:48:25;;;;;;;8.38;7.50;;;11.00;99.90;;;;;;5034267;28;20226;-68
2021/04/10 04:50:51;;;;;;;9.45;7.97;;;11.00;99.90;;;;;;5031936;28;20195;-68
2021/04/10 04:53:19;;;;;;;9.30;7.30;;;10.90;99.90;;;;;;5032980;28;20583;-67
2021/04/10 04:55:45;;;;;;;8.45;7.55;;;10.90;99.90;;;;;;5040242;28;20211;-68
2021/04/10 04:58:11;;;;;;;9.60;7.15;;;10.90;99.90;;;;;;5047947;28;20199;-68
2021/04/10 05:00:37;;;;;;;7.93;6.88;;;10.90;99.90;;;;;;5037523;28;20203;-68
2021/04/10 05:03:04;;;;;;;8.23;6.95;;;10.90;99.90;;;;;;5030693;28;20195;-68
2021/04/10 05:05:30;;;;;;;8.20;7.40;;;10.90;99.90;;;;;;5032143;28;20203;-68
2021/04/10 05:07:57;;;;;;;8.23;7.43;;;10.90;99.90;;;;;;5039308;28;20191;-68
2021/04/10 05:10:24;;;;;;;11.10;7.93;;;10.90;99.90;;;;;;5036432;28;20211;-69
2021/04/10 05:12:52;;;;;;;8.45;6.68;;;10.90;99.90;;;;;;5041202;28;20198;-68
2021/04/10 05:15:19;;;;;;;9.43;7.22;;;10.90;99.90;;;;;;5036734;28;20654;-68
2021/04/10 05:17:45;;;;;;;7.50;6.80;;;10.90;99.90;;;;;;5042040;28;20266;-68
2021/04/10 05:20:12;;;;;;;9.93;8.93;;;10.90;99.90;;;;;;5033020;28;20203;-68
2021/04/10 05:22:39;;;;;;;11.13;7.18;;;10.90;99.90;;;;;;5043418;28;20212;-69
2021/04/10 05:25:06;;;;;;;15.45;8.93;;;10.90;99.90;;;;;;5031642;28;20195;-68
2021/04/10 05:27:33;;;;;;;12.05;8.77;;;10.80;99.90;;;;;;5036920;28;20227;-69
2021/04/10 05:30:00;;;;;;;15.50;9.50;;;10.80;99.90;;;;;;5037226;28;20215;-68
2021/04/10 05:32:26;;;;;;;10.90;8.90;;;10.80;99.90;;;;;;5045667;28;20202;-69
2021/04/10 05:34:53;;;;;;;10.45;8.82;;;10.80;99.90;;;;;;5045935;28;20257;-69
2021/04/10 05:37:19;;;;;;;9.10;8.05;;;10.70;99.90;;;;;;5044602;28;20225;-68
2021/04/10 05:39:45;;;;;;;10.70;7.82;;;10.70;99.90;;;;;;5039938;28;20203;-69
2021/04/10 05:42:12;;;;;;;8.10;7.25;;;10.70;99.90;;;;;;5042704;28;20651;-68
2021/04/10 05:44:39;;;;;;;12.32;7.90;;;10.70;99.90;;;;;;5039031;28;20279;-68
2021/04/10 05:47:05;;;;;;;10.05;6.97;;;10.60;99.90;;;;;;5031779;28;20198;-68
2021/04/10 05:49:32;;;;;;;9.02;7.85;;;10.60;99.90;;;;;;5042300;28;20723;-68
2021/04/10 05:51:58;;;;;;;9.82;7.28;;;10.60;99.90;;;;;;5043541;28;20201;-68
2021/04/10 05:54:24;;;;;;;6.97;5.97;;;10.60;99.90;;;;;;5035529;28;20195;-69
2021/04/10 05:56:50;;;;;;;8.25;7.10;;;10.60;99.90;;;;;;5035118;28;20208;-68
2021/04/10 05:59:16;;;;;;;7.57;6.65;;;10.50;99.90;;;;;;5031172;28;20214;-69
2021/04/10 06:01:43;;;;;;;8.35;6.05;;;10.50;99.90;;;;;;5043044;28;20248;-69
2021/04/10 06:04:10;;;;;;;5.20;4.70;;;10.60;99.90;;;;;;5045061;28;20191;-68
2021/04/10 06:06:37;;;;;;;8.00;6.07;;;10.60;99.90;;;;;;5039725;28;20191;-68
2021/04/10 06:09:03;;;;;;;7.40;5.95;;;10.60;99.90;;;;;;5033127;28;20257;-68
2021/04/10 06:11:30;;;;;;;7.30;6.10;;;10.60;99.90;;;;;;5038024;28;20199;-69
2021/04/10 06:13:56;;;;;;;9.27;6.70;;;10.60;99.90;;;;;;5039639;28;20211;-69
2021/04/10 06:16:22;;;;;;;9.38;6.20;;;10.60;99.90;;;;;;5040696;28;20207;-69
2021/04/10 06:18:49;;;;;;;8.80;6.35;;;10.60;99.90;;;;;;5036020;28;20219;-68
2021/04/10 06:21:15;;;;;;;8.25;5.55;;;10.60;99.90;;;;;;5041458;28;20199;-68
2021/04/10 06:23:43;;;;;;;6.82;5.15;;;10.60;99.90;;;;;;5037676;28;20200;-68
2021/04/10 06:26:09;;;;;;;5.85;5.18;;;10.60;99.90;;;;;;5030006;28;20196;-68
2021/04/10 06:28:35;;;;;;;6.47;5.88;;;10.60;99.90;;;;;;5032440;28;20199;-68
2021/04/10 06:31:02;;;;;;;8.32;4.70;;;10.50;99.90;;;;;;5031008;28;20207;-68
2021/04/10 06:33:28;;;;;;;10.95;5.45;;;10.50;99.90;;;;;;5044073;28;20229;-68
2021/04/10 06:35:55;;;;;;;9.20;5.55;;;10.50;99.90;;;;;;5035007;28;20203;-68
2021/04/10 06:38:21;;;;;;;9.73;5.70;;;10.50;99.90;;;;;;5034512;28;20207;-69
2021/04/10 06:40:47;;;;;;;5.88;5.15;;;10.50;99.90;;;;;;5052161;28;20213;-69
2021/04/10 06:43:15;;;;;;;4.80;4.10;;;10.50;99.90;;;;;;5054256;28;20672;-69
2021/04/10 06:45:41;;;;;;;6.70;5.28;;;10.50;99.90;;;;;;5037055;28;20190;-71
2021/04/10 06:48:13;;;;;;;6.00;5.38;;;10.50;99.90;;;;;;5050954;28;20195;-70
2021/04/10 06:50:40;;;;;;;4.47;3.97;;;10.50;99.90;;;;;;5044581;28;20226;-69
2021/04/10 06:53:08;;;;;;;5.13;4.63;;;10.40;99.90;;;;;;5035425;28;20203;-69
2021/04/10 06:55:39;;;;;;;8.15;5.38;;;10.40;99.90;;;;;;5038369;28;20658;-69
2021/04/10 06:58:06;;;;;;;7.38;5.90;;;10.40;99.90;;;;;;5038991;28;20203;-69
2021/04/10 07:00:32;;;;;;;5.93;5.15;;;10.40;99.90;;;;;;5039662;28;20206;-70
2021/04/10 07:03:01;;;;;;;7.22;5.82;;;10.40;99.90;;;;;;5029956;28;20195;-69
2021/04/10 07:05:28;;;;;;;8.07;5.28;;;10.40;99.90;;;;;;5035441;28;20195;-69
2021/04/10 07:07:55;;;;;;;6.75;5.82;;;10.30;99.90;;;;;;5037229;28;20237;-69
2021/04/10 07:10:23;;;;;;;5.38;4.22;;;10.40;99.90;;;;;;5035213;28;20195;-69
2021/04/10 07:12:49;;;;;;;8.23;5.13;;;10.30;99.90;;;;;;5035851;28;20195;-69
2021/04/10 07:15:17;;;;;;;7.40;5.32;;;10.40;99.90;;;;;;5033110;28;20229;-69
2021/04/10 07:17:43;;;;;;;4.43;4.00;;;10.40;99.90;;;;;;5037948;28;20662;-69
2021/04/10 07:20:26;;;;;;;7.05;4.57;;;10.40;99.90;;;;;;5033731;28;20553;-71
2021/04/10 07:23:00;;;;;;;5.80;4.90;;;10.40;99.90;;;;;;5035967;28;20194;-70
2021/04/10 07:25:29;;;;;;;11.60;5.80;;;10.30;99.90;;;;;;5035181;28;20195;-71
2021/04/10 07:27:56;;;;;;;11.40;6.57;;;10.30;99.90;;;;;;5042056;28;20226;-71
2021/04/10 07:30:23;;;;;;;7.10;5.25;;;10.20;99.90;;;;;;5037097;28;20200;-70
2021/04/10 07:32:49;;;;;;;9.63;5.85;;;10.20;99.90;;;;;;5041180;28;20202;-69
2021/04/10 07:35:17;;;;;;;7.57;6.30;;;10.20;99.90;;;;;;5034185;28;20191;-70
2021/04/10 07:37:46;;;;;;;11.35;6.03;;;10.20;99.90;;;;;;5033849;28;20242;-69
2021/04/10 07:40:17;;;;;;;7.13;5.35;;;10.30;99.90;;;;;;5033291;28;20681;-69
2021/04/10 07:42:47;;;;;;;8.63;6.78;;;10.30;99.90;;;;;;5036997;28;20198;-69
2021/04/10 07:45:29;;;;;;;10.40;6.63;;;10.30;99.90;;;;;;5035905;28;20196;-69
2021/04/10 07:48:02;;;;;;;6.97;6.03;;;10.30;99.90;;;;;;5035951;28;20187;-69
2021/04/10 07:50:30;;;;;;;7.80;6.32;;;10.30;99.90;;;;;;5047145;28;20187;-69
2021/04/10 07:52:57;;;;;;;10.85;7.95;;;10.30;99.90;;;;;;5037234;28;20210;-69
2021/04/10 07:55:40;;;;;;;11.77;7.75;;;10.20;99.90;;;;;;5037126;28;20194;-68
2021/04/10 07:58:28;;;;;;;8.48;6.13;;;10.20;99.90;;;;;;5039171;28;20214;-69
2021/04/10 08:00:57;;;;;;;11.90;7.72;;;10.20;99.90;;;;;;5049047;28;20199;-68
2021/04/10 08:03:29;;;;;;;8.18;5.60;;;10.20;99.90;;;;;;5042596;28;20225;-69
2021/04/10 08:05:56;;;;;;;8.73;6.55;;;10.20;99.90;;;;;;5036775;28;20704;-70
2021/04/10 08:08:24;;;;;;;14.68;8.70;;;10.30;99.90;;;;;;5032270;28;20214;-71
2021/04/10 08:10:58;;;;;;;9.65;6.95;;;10.30;99.90;;;;;;5050466;28;20205;-70
2021/04/10 08:13:24;;;;;;;14.63;8.75;;;10.20;99.90;;;;;;5048556;28;20256;-70
2021/04/10 08:16:16;;;;;;;9.43;6.70;;;10.20;99.90;;;;;;5040598;28;20198;-70
2021/04/10 08:18:45;;;;;;;11.18;7.97;;;10.20;99.90;;;;;;5043100;28;20231;-70
2021/04/10 08:21:13;;;;;;;7.88;7.05;;;10.20;99.90;;;;;;5031907;28;20202;-71
2021/04/10 08:23:39;;;;;;;7.85;7.05;;;10.20;99.90;;;;;;5030907;28;20200;-70
2021/04/10 08:26:05;;;;;;;9.75;7.60;;;10.20;99.90;;;;;;5040486;28;20211;-70
2021/04/10 08:28:32;;;;;;;13.52;9.68;;;10.20;99.90;;;;;;5042605;28;20691;-70
2021/04/10 08:30:58;;;;;;;12.20;8.82;;;10.20;99.90;;;;;;5034641;28;20254;-70
2021/04/10 08:33:26;;;;;;;12.70;9.05;;;10.20;99.90;;;;;;5048454;28;20256;-70
2021/04/10 08:35:54;;;;;;;13.93;10.15;;;10.20;99.90;;;;;;5033917;28;20207;-70
2021/04/10 08:38:23;;;;;;;14.55;11.38;;;10.30;99.90;;;;;;5043523;28;20651;-70
2021/04/10 08:40:53;;;;;;;12.05;9.13;;;10.20;99.90;;;;;;5045463;28;20199;-71
2021/04/10 08:43:21;;;;;;;14.18;10.43;;;10.20;99.90;;;;;;5032050;28;20202;-70
2021/04/10 08:45:51;;;;;;;12.90;8.98;;;10.20;99.90;;;;;;5031974;28;20643;-70
2021/04/10 08:48:20;;;;;;;18.00;12.32;;;10.30;99.90;;;;;;5038288;28;20188;-70
2021/04/10 08:50:49;;;;;;;14.02;9.63;;;10.30;99.90;;;;;;5048038;28;20199;-71
2021/04/10 08:53:19;;;;;;;11.98;9.07;;;10.30;99.90;;;;;;5036615;28;20519;-70
2021/04/10 08:55:46;;;;;;;10.32;9.00;;;10.30;99.90;;;;;;5050953;28;20282;-71
2021/04/10 08:58:20;;;;;;;14.57;10.25;;;10.30;99.90;;;;;;5043247;28;20222;-70
2021/04/10 09:00:52;;;;;;;15.05;10.02;;;10.30;99.90;;;;;;5040080;28;20199;-69
2021/04/10 09:03:18;;;;;;;13.98;10.55;;;10.30;99.90;;;;;;5033044;28;20203;-70
2021/04/10 09:05:48;;;;;;;15.00;9.30;;;10.30;99.90;;;;;;5035217;28;20532;-70
2021/04/10 09:08:24;;;;;;;12.88;8.82;;;10.30;99.90;;;;;;5035757;28;20605;-72
2021/04/10 09:10:55;;;;;;;11.30;8.75;;;10.30;99.90;;;;;;5039033;28;20191;-70
2021/04/10 09:13:29;;;;;;;10.45;8.00;;;10.40;99.90;;;;;;5032686;28;20192;-72
2021/04/10 09:16:28;;;;;;;16.60;9.65;;;10.30;99.90;;;;;;5036127;28;20211;-72
2021/04/10 09:18:57;;;;;;;14.63;10.82;;;10.20;99.90;;;;;;5039551;28;20600;-72
2021/04/10 09:21:25;;;;;;;13.20;8.68;;;10.20;99.90;;;;;;5034365;28;20208;-74
2021/04/10 09:23:52;;;;;;;13.27;8.77;;;10.20;99.90;;;;;;5033608;28;20195;-72
2021/04/10 09:26:20;;;;;;;15.45;9.57;;;10.20;99.90;;;;;;5047842;28;20537;-71
2021/04/10 09:29:19;;;;;;;10.88;9.05;;;10.20;99.90;;;;;;5048611;28;20202;-72
2021/04/10 09:31:49;;;;;;;15.07;10.25;;;10.20;99.90;;;;;;4953614;28;20202;-70
2021/04/10 09:34:55;;;;;;;14.75;9.23;;;10.30;99.90;;;;;;4950670;28;20202;-72
2021/04/10 09:37:59;;;;;;;13.02;9.95;;;10.30;99.90;;;;;;5018517;28;20218;-70
2021/04/10 09:40:45;;;;;;;15.57;11.13;;;10.30;99.90;;;;;;5046872;28;20840;-70
2021/04/10 09:43:13;;;;;;;12.77;9.35;;;10.30;99.90;;;;;;5044274;28;20283;-70
2021/04/10 09:45:39;;;;;;;11.85;9.20;;;10.30;99.90;;;;;;5045135;28;20792;-71
2021/04/10 09:48:34;;;;;;;16.15;12.27;;;10.30;99.90;;;;;;5034320;28;20196;-71
2021/04/10 09:51:15;;;;;;;14.23;10.90;;;10.30;99.90;;;;;;5034420;28;20199;-71
2021/04/10 09:53:52;;;;;;;12.93;9.25;;;10.30;99.90;;;;;;5043922;28;20197;-71
2021/04/10 09:56:20;;;;;;;19.40;10.82;;;10.30;99.90;;;;;;5032594;28;20667;-72
2021/04/10 09:58:52;;;;;;;15.07;11.27;;;10.30;99.90;;;;;;5031553;28;20290;-71
2021/04/10 10:01:21;;;;;;;17.58;10.57;;;10.30;99.90;;;;;;5039598;28;20198;-70
2021/04/10 10:03:49;;;;;;;14.13;10.45;;;10.30;99.90;;;;;;5045091;28;20581;-70
2021/04/10 10:06:20;;;;;;;15.07;8.73;;;10.30;99.90;;;;;;5046072;28;20205;-70
2021/04/10 10:08:47;;;;;;;16.20;10.65;;;10.20;99.90;;;;;;5034659;28;20655;-70
2021/04/10 10:11:14;;;;;;;16.70;9.73;;;10.20;99.90;;;;;;5042407;28;20199;-72
2021/04/10 10:13:42;;;;;;;13.45;10.30;;;10.20;99.90;;;;;;5049505;28;20217;-69
2021/04/10 10:16:09;;;;;;;19.55;11.63;;;10.10;99.90;;;;;;5042057;28;20346;-71
2021/04/10 10:18:37;;;;;;;16.92;10.75;;;10.10;99.90;;;;;;5049473;28;20194;-70
2021/04/10 10:21:06;;;;;;;13.48;9.32;;;10.10;99.90;;;;;;5045450;28;20214;-71
2021/04/10 10:23:34;;;;;;;11.68;9.07;;;10.10;99.90;;;;;;5044305;28;20261;-72
2021/04/10 10:26:06;;;;;;;13.88;9.55;;;10.10;99.90;;;;;;5051996;28;20202;-72
2021/04/10 10:28:33;;;;;;;13.65;9.60;;;10.10;99.90;;;;;;5040671;28;20191;-70
2021/04/10 10:31:08;;;;;;;16.60;9.98;;;10.10;99.90;;;;;;5046238;28;20210;-72
2021/04/10 10:33:34;;;;;;;17.77;10.98;;;10.10;99.90;;;;;;5034625;28;20630;-72
2021/04/10 10:36:02;;;;;;;12.77;9.38;;;10.10;99.90;;;;;;5048594;28;20199;-72
2021/04/10 10:38:33;;;;;;;15.15;9.80;;;10.10;99.90;;;;;;5038084;28;20231;-71
2021/04/10 10:40:59;;;;;;;11.32;10.10;;;10.00;99.90;;;;;;5034701;28;20218;-71
2021/04/10 10:43:27;;;;;;;14.70;9.93;;;10.00;99.90;;;;;;5049070;28;20203;-72
2021/04/10 10:45:54;;;;;;;12.10;10.10;;;10.10;99.90;;;;;;5045174;28;21835;-73
2021/04/10 10:48:26;;;;;;;17.83;10.93;;;10.00;99.90;;;;;;5039707;28;20264;-73
2021/04/10 10:50:55;;;;;;;13.40;10.45;;;10.10;99.90;;;;;;5042486;28;20195;-73
2021/04/10 10:53:23;;;;;;;15.30;11.48;;;10.00;99.90;;;;;;5042200;28;20200;-73
2021/04/10 10:56:07;;;;;;;19.05;12.50;;;10.10;99.90;;;;;;5039866;28;20200;-72
2021/04/10 10:58:37;;;;;;;15.32;11.05;;;10.20;99.90;;;;;;5040193;28;20229;-71
2021/04/10 11:01:11;;;;;;;14.85;11.98;;;10.30;99.90;;;;;;5041104;28;20210;-72
2021/04/10 11:03:38;;;;;;;19.65;12.63;;;10.30;99.90;;;;;;5042449;28;20187;-69
2021/04/10 11:06:06;;;;;;;16.35;11.60;;;10.30;99.90;;;;;;5038733;28;20199;-71
2021/04/10 11:08:33;;;;;;;17.88;13.35;;;10.30;99.90;;;;;;5039979;28;21120;-71
2021/04/10 11:11:00;;;;;;;15.50;13.82;;;10.40;99.90;;;;;;5040078;28;20195;-72
2021/04/10 11:13:26;;;;;;;14.80;11.60;;;10.40;99.90;;;;;;5034548;28;20218;-69
2021/04/10 11:15:52;;;;;;;14.85;11.10;;;10.40;99.90;;;;;;5034269;28;20200;-69
2021/04/10 11:18:30;;;;;;;18.27;12.40;;;10.50;99.90;;;;;;5033516;28;21097;-73
2021/04/10 11:21:23;;;;;;;21.70;13.25;;;10.50;99.90;;;;;;5040111;28;20199;-72
2021/04/10 11:24:08;;;;;;;20.58;12.38;;;10.50;99.90;;;;;;5044636;28;20187;-71
2021/04/10 11:26:44;;;;;;;20.42;12.07;;;10.50;99.90;;;;;;5052138;28;20233;-72
2021/04/10 11:29:23;;;;;;;17.27;11.50;;;10.50;99.90;;;;;;5034196;28;20210;-71
2021/04/10 11:32:13;;;;;;;18.98;11.15;;;10.50;99.90;;;;;;5041841;28;20237;-72
2021/04/10 11:34:41;;;;;;;17.63;11.80;;;10.60;99.90;;;;;;5035190;28;20195;-71
2021/04/10 11:37:10;;;;;;;13.60;10.27;;;10.50;99.90;;;;;;5044796;28;20210;-71
2021/04/10 11:39:56;;;;;;;21.80;12.20;;;10.60;99.90;;;;;;5049814;28;20221;-71
2021/04/10 11:42:24;;;;;;;18.65;10.88;;;10.60;99.90;;;;;;5048277;28;20214;-71
2021/04/10 11:44:50;;;;;;;14.20;10.30;;;10.60;99.90;;;;;;5044731;28;20234;-71
2021/04/10 11:47:20;;;;;;;16.83;12.80;;;10.50;99.90;;;;;;5033202;28;20199;-69
2021/04/10 11:49:46;;;;;;;14.88;11.35;;;10.40;99.90;;;;;;5033285;28;20203;-71
2021/04/10 11:52:14;;;;;;;15.52;10.80;;;10.40;99.90;;;;;;5037265;28;20203;-71
2021/04/10 11:54:40;;;;;;;12.13;10.15;;;10.50;99.90;;;;;;5051420;28;20217;-71
2021/04/10 11:57:07;;;;;;;14.43;11.52;;;10.50;99.90;;;;;;5050978;28;20223;-71
2021/04/10 11:59:36;;;;;;;20.75;12.63;;;10.60;99.90;;;;;;5053059;28;20218;-72
2021/04/10 12:02:02;;;;;;;17.65;12.88;;;10.60;99.90;;;;;;5049406;28;20218;-71
2021/04/10 12:04:30;;;;;;;18.70;11.70;;;10.70;99.90;;;;;;5045070;28;20203;-70
2021/04/10 12:07:05;;;;;;;18.92;13.15;;;10.70;99.90;;;;;;5046336;28;20290;-72
2021/04/10 12:09:35;;;;;;;16.35;12.32;;;10.70;99.90;;;;;;5042774;28;20226;-70
2021/04/10 12:12:01;;;;;;;16.45;12.73;;;10.60;99.90;;;;;;5051366;28;20627;-70
2021/04/10 12:14:28;;;;;;;26.58;13.15;;;10.60;99.90;;;;;;5048037;28;20207;-72
2021/04/10 12:16:54;;;;;;;20.65;13.63;;;10.60;99.90;;;;;;5051054;28;20765;-70
2021/04/10 12:19:21;;;;;;;19.55;13.35;;;10.70;99.90;;;;;;5050436;28;20203;-70
2021/04/10 12:21:48;;;;;;;14.55;11.98;;;10.60;99.90;;;;;;5048077;28;20188;-71
2021/04/10 12:24:14;;;;;;;18.08;12.68;;;10.70;99.90;;;;;;5031271;28;20203;-70
2021/04/10 12:26:41;;;;;;;18.77;13.52;;;10.60;99.90;;;;;;5044993;28;20276;-70
2021/04/10 12:29:08;;;;;;;17.08;12.25;;;10.60;99.90;;;;;;5050196;28;20195;-70
2021/04/10 12:31:34;;;;;;;23.17;16.35;;;10.60;99.90;;;;;;5049362;28;20769;-71
2021/04/10 12:34:00;;;;;;;17.35;12.63;;;10.60;99.90;;;;;;5043186;28;20257;-70
2021/04/10 12:36:28;;;;;;;20.55;12.38;;;10.60;99.90;;;;;;5051542;28;20221;-69
2021/04/10 12:38:55;;;;;;;18.42;13.27;;;10.70;99.90;;;;;;5037070;28;20234;-70
2021/04/10 12:41:21;;;;;;;15.55;12.95;;;10.60;99.90;;;;;;5045074;28;20207;-70
2021/04/10 12:43:48;;;;;;;19.77;13.48;;;10.70;99.90;;;;;;5043030;28;20262;-70
2021/04/10 12:46:14;;;;;;;19.20;13.35;;;10.70;99.90;;;;;;5032083;28;20211;-70
2021/04/10 12:48:41;;;;;;;21.58;14.45;;;10.70;99.90;;;;;;5033098;28;20540;-70
2021/04/10 12:51:07;;;;;;;19.40;14.07;;;10.60;99.90;;;;;;5043880;28;20525;-71
2021/04/10 12:53:34;;;;;;;17.90;14.10;;;10.70;99.90;;;;;;5045158;28;20206;-70